Vision — WDF6306 — position and weather

sailwx.info

Track history (hours):
 
Tides and Currents Weather Stations Pressure Air Temp Water Temp Dewpoint Dewpoint Depression Visibility Wind Speed Wind Dir Waves Ship Positions

Vision

Owner: INTREPID SHIP MANAGEMENT, JACKSONVILLE, FL. More information available from US FCC via Universal Licensing System and Coast Guard Vessel Documentation Center.

Last reported at 2016-Sep-26 20:31 UTC. Time now 2016-Sep-26 20:50 UTC.
Position N 48°31' W 122°34'.

Length 199 m; draft 8.8 m.

Type: Towing. MMSI: 366904000.

Date/timePositionNaut miles runAvg speedWind from/ knotsBaromVisibWave heightAir tempDewpointWater temp
2016-Sep-26 20:31N 48°31' W 122°34'0 0.1
2016-Sep-26 19:31N 48°31' W 122°34'0 0.1
2016-Sep-26 15:32N 48°31' W 122°34'0 0.0
2016-Sep-26 13:31N 48°31' W 122°34'0 0.1
2016-Sep-26 11:19N 48°31' W 122°34'0 0.0
2016-Sep-26 08:07N 48°31' W 122°34'0 0.0
2016-Sep-26 02:31N 48°31' W 122°34'0 0.0
2016-Sep-26 01:31N 48°31' W 122°34'0 0.2
2016-Sep-26 00:19N 48°31' W 122°34'0 0.0
2016-Sep-25 21:31N 48°31' W 122°34'0 0.1
2016-Sep-25 17:28N 48°32' W 122°34'0 0.1
2016-Sep-25 16:28N 48°31' W 122°34'0 0.0
2016-Sep-25 15:31N 48°31' W 122°34'0 0.1
2016-Sep-25 14:33N 48°31' W 122°34'1 0.5
2016-Sep-25 12:29N 48°31' W 122°35'0 0.0
2016-Sep-25 11:29N 48°31' W 122°35'0 0.0
2016-Sep-25 10:23N 48°31' W 122°35'0 0.0
2016-Sep-25 09:29N 48°31' W 122°35'0 0.0
2016-Sep-25 07:29N 48°31' W 122°35'0 0.0
2016-Sep-25 04:29N 48°31' W 122°35'0 0.0
2016-Sep-25 00:29N 48°31' W 122°35'0 0.0
2016-Sep-24 22:33N 48°31' W 122°35'0 0.0
2016-Sep-24 21:11N 48°31' W 122°35'0 0.0
2016-Sep-24 19:32N 48°31' W 122°35'0 0.0
2016-Sep-24 18:33N 48°31' W 122°35'0 0.0
2016-Sep-24 17:26N 48°31' W 122°35'0 0.0
2016-Sep-24 16:29N 48°31' W 122°35'0 0.0
2016-Sep-24 14:27N 48°31' W 122°35'0 0.0
2016-Sep-24 12:33N 48°31' W 122°35'0 0.0
2016-Sep-24 10:29N 48°31' W 122°35'0 0.0
2016-Sep-24 09:29N 48°31' W 122°35'0 0.0
2016-Sep-24 03:29N 48°31' W 122°35'0 0.0
2016-Sep-24 02:29N 48°31' W 122°35'0 0.0
2016-Sep-24 01:29N 48°31' W 122°35'0 0.0
2016-Sep-24 00:29N 48°31' W 122°35'0 0.0
2016-Sep-23 19:23N 48°31' W 122°35'0 0.0
2016-Sep-23 17:29N 48°31' W 122°35'0 0.0
2016-Sep-23 16:29N 48°31' W 122°35'0 0.0
2016-Sep-23 15:29N 48°31' W 122°35'0 0.0
2016-Sep-23 13:29N 48°31' W 122°35'0 0.0
2016-Sep-23 09:29N 48°31' W 122°35'0 0.0
2016-Sep-23 06:29N 48°31' W 122°35'1 0.3
2016-Sep-23 04:29N 48°31' W 122°35'0 0.1
2016-Sep-23 03:29N 48°31' W 122°35'0 0.1
2016-Sep-23 02:32N 48°31' W 122°35'4 4.6
2016-Sep-23 01:33N 48°31' W 122°42'1212.0
2016-Sep-23 00:33N 48°22' W 122°53'1212.3
2016-Sep-22 23:33N 48°15' W 123°09'29 9.7
2016-Sep-22 20:33N 48°13' W 123°52'71 8.9
2016-Sep-22 12:33N 47°43' W 125°28'9011.2
2016-Sep-22 04:33N 46°14' W 125°40'1111.5
2016-Sep-22 03:33N 46°02' W 125°43'3511.6
2016-Sep-22 00:31N 45°28' W 125°54'1010.0
2016-Sep-21 23:31N 45°19' W 126°01'37 9.2
2016-Sep-21 19:28N 44°42' W 126°04'38911.1
2016-Sep-20 08:30N 38°21' W 124°21'1110.9
2016-Sep-20 07:32N 38°14' W 124°11'1111.0
2016-Sep-20 06:33N 38°07' W 124°01'4611.5
2016-Sep-20 02:33N 37°34' W 123°20'3110.3
2016-Sep-19 23:33N 37°45' W 122°43'18 4.5
2016-Sep-19 19:32N 37°46' W 122°20'0 0.0
2016-Sep-19 18:32N 37°46' W 122°20'0 0.0
2016-Sep-19 16:32N 37°46' W 122°20'0 0.1
2016-Sep-19 14:32N 37°46' W 122°20'0 0.0
2016-Sep-19 13:32N 37°46' W 122°20'0 0.0
2016-Sep-19 12:32N 37°46' W 122°20'0 0.0
2016-Sep-19 11:32N 37°46' W 122°20'0 0.1
2016-Sep-19 09:32N 37°46' W 122°20'0 0.0
2016-Sep-19 07:33N 37°46' W 122°20'0 0.0
2016-Sep-19 06:32N 37°46' W 122°20'0 0.1
2016-Sep-19 03:32N 37°46' W 122°20'0 0.0
2016-Sep-19 02:32N 37°46' W 122°20'0 0.0
2016-Sep-19 00:32N 37°46' W 122°20'0 0.1
2016-Sep-18 19:32N 37°46' W 122°20'0 0.1
2016-Sep-18 15:32N 37°46' W 122°21'0 0.1
2016-Sep-18 14:32N 37°46' W 122°20'0 0.0
2016-Sep-18 10:32N 37°46' W 122°20'0 0.1
2016-Sep-18 09:32N 37°46' W 122°20'0 0.0
2016-Sep-18 02:32N 37°46' W 122°20'0 0.1
2016-Sep-18 01:32N 37°46' W 122°20'0 0.0
2016-Sep-18 00:32N 37°46' W 122°20'0 0.0
2016-Sep-17 22:32N 37°46' W 122°20'0 0.0
2016-Sep-17 21:32N 37°46' W 122°20'0 0.1
2016-Sep-17 20:33N 37°46' W 122°20'11 8.2
2016-Sep-17 19:16N 37°55' W 122°27'16 2.7
2016-Sep-17 13:18N 38°02' W 122°08'0 0.0
2016-Sep-17 12:24N 38°02' W 122°08'0 0.0
2016-Sep-17 10:30N 38°02' W 122°08'0 0.0
2016-Sep-17 09:30N 38°02' W 122°08'0 0.0
2016-Sep-17 08:18N 38°02' W 122°08'0 0.0
2016-Sep-17 07:18N 38°02' W 122°08'0 0.0
2016-Sep-17 05:30N 38°02' W 122°08'0 0.0
2016-Sep-17 04:18N 38°02' W 122°08'0 0.0
2016-Sep-17 00:30N 38°02' W 122°08'  
Track history (hours):
 
Tides and Currents Weather Stations Pressure Air Temp Water Temp Dewpoint Dewpoint Depression Visibility Wind Speed Wind Dir Waves Ship Positions

Vision

Owner: INTREPID SHIP MANAGEMENT, JACKSONVILLE, FL. More information available from US FCC via Universal Licensing System and Coast Guard Vessel Documentation Center.

Last reported at 2016-Sep-26 20:31 UTC. Time now 2016-Sep-26 20:50 UTC.
Position N 48°31' W 122°34'.

Length 199 m; draft 8.8 m.

Type: Towing. MMSI: 366904000.

Date/timePositionNaut miles runAvg speedWind from/ knotsBaromVisibWave heightAir tempDewpointWater temp
2016-Sep-26 20:31N 48°31' W 122°34'0 0.1
2016-Sep-26 19:31N 48°31' W 122°34'0 0.1
2016-Sep-26 15:32N 48°31' W 122°34'0 0.0
2016-Sep-26 13:31N 48°31' W 122°34'0 0.1
2016-Sep-26 11:19N 48°31' W 122°34'0 0.0
2016-Sep-26 08:07N 48°31' W 122°34'0 0.0
2016-Sep-26 02:31N 48°31' W 122°34'0 0.0
2016-Sep-26 01:31N 48°31' W 122°34'0 0.2
2016-Sep-26 00:19N 48°31' W 122°34'0 0.0
2016-Sep-25 21:31N 48°31' W 122°34'0 0.1
2016-Sep-25 17:28N 48°32' W 122°34'0 0.1
2016-Sep-25 16:28N 48°31' W 122°34'0 0.0
2016-Sep-25 15:31N 48°31' W 122°34'0 0.1
2016-Sep-25 14:33N 48°31' W 122°34'1 0.5
2016-Sep-25 12:29N 48°31' W 122°35'0 0.0
2016-Sep-25 11:29N 48°31' W 122°35'0 0.0
2016-Sep-25 10:23N 48°31' W 122°35'0 0.0
2016-Sep-25 09:29N 48°31' W 122°35'0 0.0
2016-Sep-25 07:29N 48°31' W 122°35'0 0.0
2016-Sep-25 04:29N 48°31' W 122°35'0 0.0
2016-Sep-25 00:29N 48°31' W 122°35'0 0.0
2016-Sep-24 22:33N 48°31' W 122°35'0 0.0
2016-Sep-24 21:11N 48°31' W 122°35'0 0.0
2016-Sep-24 19:32N 48°31' W 122°35'0 0.0
2016-Sep-24 18:33N 48°31' W 122°35'0 0.0
2016-Sep-24 17:26N 48°31' W 122°35'0 0.0
2016-Sep-24 16:29N 48°31' W 122°35'0 0.0
2016-Sep-24 14:27N 48°31' W 122°35'0 0.0
2016-Sep-24 12:33N 48°31' W 122°35'0 0.0
2016-Sep-24 10:29N 48°31' W 122°35'0 0.0
2016-Sep-24 09:29N 48°31' W 122°35'0 0.0
2016-Sep-24 03:29N 48°31' W 122°35'0 0.0
2016-Sep-24 02:29N 48°31' W 122°35'0 0.0
2016-Sep-24 01:29N 48°31' W 122°35'0 0.0
2016-Sep-24 00:29N 48°31' W 122°35'0 0.0
2016-Sep-23 19:23N 48°31' W 122°35'0 0.0
2016-Sep-23 17:29N 48°31' W 122°35'0 0.0
2016-Sep-23 16:29N 48°31' W 122°35'0 0.0
2016-Sep-23 15:29N 48°31' W 122°35'0 0.0
2016-Sep-23 13:29N 48°31' W 122°35'0 0.0
2016-Sep-23 09:29N 48°31' W 122°35'0 0.0
2016-Sep-23 06:29N 48°31' W 122°35'1 0.3
2016-Sep-23 04:29N 48°31' W 122°35'0 0.1
2016-Sep-23 03:29N 48°31' W 122°35'0 0.1
2016-Sep-23 02:32N 48°31' W 122°35'4 4.6
2016-Sep-23 01:33N 48°31' W 122°42'1212.0
2016-Sep-23 00:33N 48°22' W 122°53'1212.3
2016-Sep-22 23:33N 48°15' W 123°09'29 9.7
2016-Sep-22 20:33N 48°13' W 123°52'71 8.9
2016-Sep-22 12:33N 47°43' W 125°28'9011.2
2016-Sep-22 04:33N 46°14' W 125°40'1111.5
2016-Sep-22 03:33N 46°02' W 125°43'3511.6
2016-Sep-22 00:31N 45°28' W 125°54'1010.0
2016-Sep-21 23:31N 45°19' W 126°01'37 9.2
2016-Sep-21 19:28N 44°42' W 126°04'38911.1
2016-Sep-20 08:30N 38°21' W 124°21'1110.9
2016-Sep-20 07:32N 38°14' W 124°11'1111.0
2016-Sep-20 06:33N 38°07' W 124°01'4611.5
2016-Sep-20 02:33N 37°34' W 123°20'3110.3
2016-Sep-19 23:33N 37°45' W 122°43'18 4.5
2016-Sep-19 19:32N 37°46' W 122°20'0 0.0
2016-Sep-19 18:32N 37°46' W 122°20'0 0.0
2016-Sep-19 16:32N 37°46' W 122°20'0 0.1
2016-Sep-19 14:32N 37°46' W 122°20'0 0.0
2016-Sep-19 13:32N 37°46' W 122°20'0 0.0
2016-Sep-19 12:32N 37°46' W 122°20'0 0.0
2016-Sep-19 11:32N 37°46' W 122°20'0 0.1
2016-Sep-19 09:32N 37°46' W 122°20'0 0.0
2016-Sep-19 07:33N 37°46' W 122°20'0 0.0
2016-Sep-19 06:32N 37°46' W 122°20'0 0.1
2016-Sep-19 03:32N 37°46' W 122°20'0 0.0
2016-Sep-19 02:32N 37°46' W 122°20'0 0.0
2016-Sep-19 00:32N 37°46' W 122°20'0 0.1
2016-Sep-18 19:32N 37°46' W 122°20'0 0.1
2016-Sep-18 15:32N 37°46' W 122°21'0 0.1
2016-Sep-18 14:32N 37°46' W 122°20'0 0.0
2016-Sep-18 10:32N 37°46' W 122°20'0 0.1
2016-Sep-18 09:32N 37°46' W 122°20'0 0.0
2016-Sep-18 02:32N 37°46' W 122°20'0 0.1
2016-Sep-18 01:32N 37°46' W 122°20'0 0.0
2016-Sep-18 00:32N 37°46' W 122°20'0 0.0
2016-Sep-17 22:32N 37°46' W 122°20'0 0.0
2016-Sep-17 21:32N 37°46' W 122°20'0 0.1
2016-Sep-17 20:33N 37°46' W 122°20'11 8.2
2016-Sep-17 19:16N 37°55' W 122°27'16 2.7
2016-Sep-17 13:18N 38°02' W 122°08'0 0.0
2016-Sep-17 12:24N 38°02' W 122°08'0 0.0
2016-Sep-17 10:30N 38°02' W 122°08'0 0.0
2016-Sep-17 09:30N 38°02' W 122°08'0 0.0
2016-Sep-17 08:18N 38°02' W 122°08'0 0.0
2016-Sep-17 07:18N 38°02' W 122°08'0 0.0
2016-Sep-17 05:30N 38°02' W 122°08'0 0.0
2016-Sep-17 04:18N 38°02' W 122°08'0 0.0
2016-Sep-17 00:30N 38°02' W 122°08'  

Dump ship's entire track history